sensor_id;sensor_type;location;lat;lon;timestamp;temperature;humidity
35804;DHT22;21924;51.934;7.414;2022-12-05T00:02:28;2.40;99.90
35804;DHT22;21924;51.934;7.414;2022-12-05T00:05:12;2.40;99.90
35804;DHT22;21924;51.934;7.414;2022-12-05T00:07:57;2.50;99.90
35804;DHT22;21924;51.934;7.414;2022-12-05T00:10:41;2.40;99.90
35804;DHT22;21924;51.934;7.414;2022-12-05T00:13:25;2.40;99.90
35804;DHT22;21924;51.934;7.414;2022-12-05T00:16:12;2.40;99.90
35804;DHT22;21924;51.934;7.414;2022-12-05T00:19:01;2.40;99.90
35804;DHT22;21924;51.934;7.414;2022-12-05T00:21:46;2.40;99.90
35804;DHT22;21924;51.934;7.414;2022-12-05T00:24:30;2.50;99.90
35804;DHT22;21924;51.934;7.414;2022-12-05T00:27:14;2.40;99.90
35804;DHT22;21924;51.934;7.414;2022-12-05T00:29:59;2.40;99.90
35804;DHT22;21924;51.934;7.414;2022-12-05T00:32:43;2.40;99.90
35804;DHT22;21924;51.934;7.414;2022-12-05T00:35:27;2.40;99.90
35804;DHT22;21924;51.934;7.414;2022-12-05T00:38:11;2.40;99.90
35804;DHT22;21924;51.934;7.414;2022-12-05T00:40:56;2.40;99.90
35804;DHT22;21924;51.934;7.414;2022-12-05T00:43:45;2.50;99.90
35804;DHT22;21924;51.934;7.414;2022-12-05T00:46:31;2.40;99.90
35804;DHT22;21924;51.934;7.414;2022-12-05T00:49:15;2.50;99.90
35804;DHT22;21924;51.934;7.414;2022-12-05T00:52:00;2.50;99.90
35804;DHT22;21924;51.934;7.414;2022-12-05T00:54:44;2.40;99.90
35804;DHT22;21924;51.934;7.414;2022-12-05T00:57:28;2.40;99.90
35804;DHT22;21924;51.934;7.414;2022-12-05T01:00:13;2.40;99.90
35804;DHT22;21924;51.934;7.414;2022-12-05T01:02:57;2.50;99.90
35804;DHT22;21924;51.934;7.414;2022-12-05T01:05:41;2.50;99.90
35804;DHT22;21924;51.934;7.414;2022-12-05T01:08:26;2.50;99.90
35804;DHT22;21924;51.934;7.414;2022-12-05T01:11:14;2.50;99.90
35804;DHT22;21924;51.934;7.414;2022-12-05T01:13:58;2.50;99.90
35804;DHT22;21924;51.934;7.414;2022-12-05T01:16:44;2.50;99.90
35804;DHT22;21924;51.934;7.414;2022-12-05T01:19:30;2.40;99.90
35804;DHT22;21924;51.934;7.414;2022-12-05T01:22:15;2.50;99.90
35804;DHT22;21924;51.934;7.414;2022-12-05T01:24:59;2.50;99.90
35804;DHT22;21924;51.934;7.414;2022-12-05T01:27:44;2.40;99.90
35804;DHT22;21924;51.934;7.414;2022-12-05T01:30:28;2.40;99.90
35804;DHT22;21924;51.934;7.414;2022-12-05T01:33:12;2.50;99.90
35804;DHT22;21924;51.934;7.414;2022-12-05T01:35:57;2.50;99.90
35804;DHT22;21924;51.934;7.414;2022-12-05T01:38:42;2.50;99.90
35804;DHT22;21924;51.934;7.414;2022-12-05T01:41:32;2.50;99.90
35804;DHT22;21924;51.934;7.414;2022-12-05T01:47:00;2.50;99.90
35804;DHT22;21924;51.934;7.414;2022-12-05T01:49:45;2.50;99.90
35804;DHT22;21924;51.934;7.414;2022-12-05T01:52:30;2.50;99.90
35804;DHT22;21924;51.934;7.414;2022-12-05T01:55:16;2.50;99.90
35804;DHT22;21924;51.934;7.414;2022-12-05T01:58:01;2.50;99.90
35804;DHT22;21924;51.934;7.414;2022-12-05T02:00:45;2.50;99.90
35804;DHT22;21924;51.934;7.414;2022-12-05T02:03:30;2.50;99.90
35804;DHT22;21924;51.934;7.414;2022-12-05T02:06:15;2.50;99.90
35804;DHT22;21924;51.934;7.414;2022-12-05T02:08:59;2.50;99.90
35804;DHT22;21924;51.934;7.414;2022-12-05T02:11:54;2.50;99.90
35804;DHT22;21924;51.934;7.414;2022-12-05T02:33:02;2.50;99.90
35804;DHT22;21924;51.934;7.414;2022-12-05T02:35:54;2.60;99.90
35804;DHT22;21924;51.934;7.414;2022-12-05T02:38:58;2.50;99.90
35804;DHT22;21924;51.934;7.414;2022-12-05T02:41:51;2.50;99.90
35804;DHT22;21924;51.934;7.414;2022-12-05T02:44:46;2.50;99.90
35804;DHT22;21924;51.934;7.414;2022-12-05T02:47:37;2.60;99.90
35804;DHT22;21924;51.934;7.414;2022-12-05T02:50:28;2.60;99.90
35804;DHT22;21924;51.934;7.414;2022-12-05T02:53:15;2.60;99.90
35804;DHT22;21924;51.934;7.414;2022-12-05T02:56:00;2.50;99.90
35804;DHT22;21924;51.934;7.414;2022-12-05T02:58:53;2.60;99.90
35804;DHT22;21924;51.934;7.414;2022-12-05T03:01:38;2.50;99.90
35804;DHT22;21924;51.934;7.414;2022-12-05T03:04:24;2.60;99.90
35804;DHT22;21924;51.934;7.414;2022-12-05T03:07:09;2.50;99.90
35804;DHT22;21924;51.934;7.414;2022-12-05T03:09:59;2.50;99.90
35804;DHT22;21924;51.934;7.414;2022-12-05T03:12:49;2.50;99.90
35804;DHT22;21924;51.934;7.414;2022-12-05T03:15:38;2.50;99.90
35804;DHT22;21924;51.934;7.414;2022-12-05T03:18:29;2.50;99.90
35804;DHT22;21924;51.934;7.414;2022-12-05T03:24:12;2.50;99.90
35804;DHT22;21924;51.934;7.414;2022-12-05T03:27:20;2.50;99.90
35804;DHT22;21924;51.934;7.414;2022-12-05T03:30:13;2.60;99.90
35804;DHT22;21924;51.934;7.414;2022-12-05T03:33:16;2.60;99.90
35804;DHT22;21924;51.934;7.414;2022-12-05T03:36:06;2.50;99.90
35804;DHT22;21924;51.934;7.414;2022-12-05T03:38:55;2.50;99.90
35804;DHT22;21924;51.934;7.414;2022-12-05T03:44:36;2.50;99.90
35804;DHT22;21924;51.934;7.414;2022-12-05T03:47:38;2.50;99.90
35804;DHT22;21924;51.934;7.414;2022-12-05T03:50:26;2.60;99.90
35804;DHT22;21924;51.934;7.414;2022-12-05T03:53:18;2.60;99.90
35804;DHT22;21924;51.934;7.414;2022-12-05T03:56:12;2.60;99.90
35804;DHT22;21924;51.934;7.414;2022-12-05T03:59:05;2.60;99.90
35804;DHT22;21924;51.934;7.414;2022-12-05T04:01:53;2.60;99.90
35804;DHT22;21924;51.934;7.414;2022-12-05T04:04:46;2.60;99.90
35804;DHT22;21924;51.934;7.414;2022-12-05T04:07:35;2.60;99.90
35804;DHT22;21924;51.934;7.414;2022-12-05T04:10:30;2.60;99.90
35804;DHT22;21924;51.934;7.414;2022-12-05T04:16:10;2.70;99.90
35804;DHT22;21924;51.934;7.414;2022-12-05T04:19:29;2.60;99.90
35804;DHT22;21924;51.934;7.414;2022-12-05T04:22:35;2.60;99.90
35804;DHT22;21924;51.934;7.414;2022-12-05T04:25:23;2.70;99.90
35804;DHT22;21924;51.934;7.414;2022-12-05T04:28:47;2.60;99.90
35804;DHT22;21924;51.934;7.414;2022-12-05T04:31:36;2.60;99.90
35804;DHT22;21924;51.934;7.414;2022-12-05T04:34:23;2.70;99.90
35804;DHT22;21924;51.934;7.414;2022-12-05T04:37:16;2.70;99.90
35804;DHT22;21924;51.934;7.414;2022-12-05T04:40:09;2.70;99.90
35804;DHT22;21924;51.934;7.414;2022-12-05T04:42:55;2.70;99.90
35804;DHT22;21924;51.934;7.414;2022-12-05T04:45:42;2.70;99.90
35804;DHT22;21924;51.934;7.414;2022-12-05T04:48:27;2.70;99.90
35804;DHT22;21924;51.934;7.414;2022-12-05T04:51:16;2.70;99.90
35804;DHT22;21924;51.934;7.414;2022-12-05T04:54:09;2.70;99.90
35804;DHT22;21924;51.934;7.414;2022-12-05T04:57:01;2.70;99.90
35804;DHT22;21924;51.934;7.414;2022-12-05T04:59:48;2.70;99.90
35804;DHT22;21924;51.934;7.414;2022-12-05T05:02:47;2.70;99.90
35804;DHT22;21924;51.934;7.414;2022-12-05T05:05:34;2.60;99.90
35804;DHT22;21924;51.934;7.414;2022-12-05T05:08:26;2.70;99.90
35804;DHT22;21924;51.934;7.414;2022-12-05T05:11:15;2.70;99.90
35804;DHT22;21924;51.934;7.414;2022-12-05T05:14:01;2.70;99.90
35804;DHT22;21924;51.934;7.414;2022-12-05T05:16:45;2.70;99.90
35804;DHT22;21924;51.934;7.414;2022-12-05T05:19:30;2.70;99.90
35804;DHT22;21924;51.934;7.414;2022-12-05T05:22:14;2.70;99.90
35804;DHT22;21924;51.934;7.414;2022-12-05T05:24:59;2.70;99.90
35804;DHT22;21924;51.934;7.414;2022-12-05T05:27:47;2.70;99.90
35804;DHT22;21924;51.934;7.414;2022-12-05T05:30:32;2.70;99.90
35804;DHT22;21924;51.934;7.414;2022-12-05T05:33:16;2.70;99.90
35804;DHT22;21924;51.934;7.414;2022-12-05T05:36:13;2.70;99.90
35804;DHT22;21924;51.934;7.414;2022-12-05T05:39:00;2.70;99.90
35804;DHT22;21924;51.934;7.414;2022-12-05T05:41:45;2.70;99.90
35804;DHT22;21924;51.934;7.414;2022-12-05T05:44:29;2.70;99.90
35804;DHT22;21924;51.934;7.414;2022-12-05T05:47:13;2.70;99.90
35804;DHT22;21924;51.934;7.414;2022-12-05T05:49:58;2.70;99.90
35804;DHT22;21924;51.934;7.414;2022-12-05T05:52:42;2.70;99.90
35804;DHT22;21924;51.934;7.414;2022-12-05T05:55:26;2.70;99.90
35804;DHT22;21924;51.934;7.414;2022-12-05T05:58:10;2.70;99.90
35804;DHT22;21924;51.934;7.414;2022-12-05T06:01:04;2.70;99.90
35804;DHT22;21924;51.934;7.414;2022-12-05T06:03:49;2.80;99.90
35804;DHT22;21924;51.934;7.414;2022-12-05T06:06:33;2.70;99.90
35804;DHT22;21924;51.934;7.414;2022-12-05T06:09:17;2.80;99.90
35804;DHT22;21924;51.934;7.414;2022-12-05T06:12:02;2.80;99.90
35804;DHT22;21924;51.934;7.414;2022-12-05T06:14:48;2.70;99.90
35804;DHT22;21924;51.934;7.414;2022-12-05T06:17:32;2.80;99.90
35804;DHT22;21924;51.934;7.414;2022-12-05T06:20:16;2.80;99.90
35804;DHT22;21924;51.934;7.414;2022-12-05T06:23:00;2.80;99.90
35804;DHT22;21924;51.934;7.414;2022-12-05T06:25:49;2.80;99.90
35804;DHT22;21924;51.934;7.414;2022-12-05T06:28:33;2.80;99.90
35804;DHT22;21924;51.934;7.414;2022-12-05T06:31:21;2.80;99.90
35804;DHT22;21924;51.934;7.414;2022-12-05T06:34:06;2.80;99.90
35804;DHT22;21924;51.934;7.414;2022-12-05T06:36:50;2.80;99.90
35804;DHT22;21924;51.934;7.414;2022-12-05T06:39:35;2.80;99.90
35804;DHT22;21924;51.934;7.414;2022-12-05T06:42:19;2.70;99.90
35804;DHT22;21924;51.934;7.414;2022-12-05T06:45:05;2.80;99.90
35804;DHT22;21924;51.934;7.414;2022-12-05T06:47:50;2.80;99.90
35804;DHT22;21924;51.934;7.414;2022-12-05T06:50:35;2.80;99.90
35804;DHT22;21924;51.934;7.414;2022-12-05T06:53:19;2.80;99.90
35804;DHT22;21924;51.934;7.414;2022-12-05T06:56:05;2.80;99.90
35804;DHT22;21924;51.934;7.414;2022-12-05T06:58:59;2.80;99.90
35804;DHT22;21924;51.934;7.414;2022-12-05T07:01:44;2.80;99.90
35804;DHT22;21924;51.934;7.414;2022-12-05T07:04:29;2.80;99.90
35804;DHT22;21924;51.934;7.414;2022-12-05T07:07:14;2.80;99.90
35804;DHT22;21924;51.934;7.414;2022-12-05T07:09:58;2.80;99.90
35804;DHT22;21924;51.934;7.414;2022-12-05T07:12:42;2.80;99.90
35804;DHT22;21924;51.934;7.414;2022-12-05T07:15:26;2.80;99.90
35804;DHT22;21924;51.934;7.414;2022-12-05T07:18:11;2.80;99.90
35804;DHT22;21924;51.934;7.414;2022-12-05T07:21:00;2.80;99.90
35804;DHT22;21924;51.934;7.414;2022-12-05T07:23:45;2.80;99.90
35804;DHT22;21924;51.934;7.414;2022-12-05T07:26:29;2.80;99.90
35804;DHT22;21924;51.934;7.414;2022-12-05T07:29:13;2.80;99.90
35804;DHT22;21924;51.934;7.414;2022-12-05T07:31:57;2.80;99.90
35804;DHT22;21924;51.934;7.414;2022-12-05T07:34:42;2.80;99.90
35804;DHT22;21924;51.934;7.414;2022-12-05T07:37:26;2.80;99.90
35804;DHT22;21924;51.934;7.414;2022-12-05T07:40:11;2.80;99.90
35804;DHT22;21924;51.934;7.414;2022-12-05T07:42:55;2.80;99.90
35804;DHT22;21924;51.934;7.414;2022-12-05T07:45:39;2.80;99.90
35804;DHT22;21924;51.934;7.414;2022-12-05T07:48:23;2.80;99.90
35804;DHT22;21924;51.934;7.414;2022-12-05T07:51:08;2.80;99.90
35804;DHT22;21924;51.934;7.414;2022-12-05T07:53:53;2.80;99.90
35804;DHT22;21924;51.934;7.414;2022-12-05T07:56:37;2.80;99.90
35804;DHT22;21924;51.934;7.414;2022-12-05T07:59:21;2.80;99.90
35804;DHT22;21924;51.934;7.414;2022-12-05T08:02:07;2.80;99.90
35804;DHT22;21924;51.934;7.414;2022-12-05T08:04:52;2.80;99.90
35804;DHT22;21924;51.934;7.414;2022-12-05T08:07:36;2.80;99.90
35804;DHT22;21924;51.934;7.414;2022-12-05T08:10:20;2.80;99.90
35804;DHT22;21924;51.934;7.414;2022-12-05T08:13:05;2.70;99.90
35804;DHT22;21924;51.934;7.414;2022-12-05T08:15:50;2.70;99.90
35804;DHT22;21924;51.934;7.414;2022-12-05T08:18:35;2.70;99.90
35804;DHT22;21924;51.934;7.414;2022-12-05T08:21:20;2.70;99.90
35804;DHT22;21924;51.934;7.414;2022-12-05T08:24:06;2.60;99.90
35804;DHT22;21924;51.934;7.414;2022-12-05T08:26:50;2.60;99.90
35804;DHT22;21924;51.934;7.414;2022-12-05T08:29:34;2.60;99.90
35804;DHT22;21924;51.934;7.414;2022-12-05T08:32:19;2.60;99.90
35804;DHT22;21924;51.934;7.414;2022-12-05T08:35:03;2.50;99.90
35804;DHT22;21924;51.934;7.414;2022-12-05T08:37:48;2.50;99.90
35804;DHT22;21924;51.934;7.414;2022-12-05T08:40:32;2.40;99.90
35804;DHT22;21924;51.934;7.414;2022-12-05T08:43:17;2.50;99.90
35804;DHT22;21924;51.934;7.414;2022-12-05T08:46:02;2.40;99.90
35804;DHT22;21924;51.934;7.414;2022-12-05T08:48:46;2.40;99.90
35804;DHT22;21924;51.934;7.414;2022-12-05T08:51:30;2.30;99.90
35804;DHT22;21924;51.934;7.414;2022-12-05T08:54:15;2.30;99.90
35804;DHT22;21924;51.934;7.414;2022-12-05T08:56:59;2.20;99.90
35804;DHT22;21924;51.934;7.414;2022-12-05T08:59:44;2.20;99.90
35804;DHT22;21924;51.934;7.414;2022-12-05T09:02:28;2.10;99.90
35804;DHT22;21924;51.934;7.414;2022-12-05T09:05:12;2.10;99.90
35804;DHT22;21924;51.934;7.414;2022-12-05T09:07:56;2.10;99.90
35804;DHT22;21924;51.934;7.414;2022-12-05T09:10:42;2.20;99.90
35804;DHT22;21924;51.934;7.414;2022-12-05T09:13:26;2.20;99.90
35804;DHT22;21924;51.934;7.414;2022-12-05T09:16:13;2.20;99.90
35804;DHT22;21924;51.934;7.414;2022-12-05T09:18:58;2.30;99.90
35804;DHT22;21924;51.934;7.414;2022-12-05T09:21:42;2.30;99.90
35804;DHT22;21924;51.934;7.414;2022-12-05T09:24:27;2.30;99.90
35804;DHT22;21924;51.934;7.414;2022-12-05T09:27:11;2.30;99.90
35804;DHT22;21924;51.934;7.414;2022-12-05T09:29:56;2.30;99.90
35804;DHT22;21924;51.934;7.414;2022-12-05T09:32:40;2.30;99.90
35804;DHT22;21924;51.934;7.414;2022-12-05T09:35:24;2.30;99.90
35804;DHT22;21924;51.934;7.414;2022-12-05T09:38:08;2.30;99.90
35804;DHT22;21924;51.934;7.414;2022-12-05T09:41:03;2.30;99.90
35804;DHT22;21924;51.934;7.414;2022-12-05T09:44:04;2.30;99.90
35804;DHT22;21924;51.934;7.414;2022-12-05T09:46:55;2.30;99.90
35804;DHT22;21924;51.934;7.414;2022-12-05T09:49:56;2.30;99.90
35804;DHT22;21924;51.934;7.414;2022-12-05T09:53:08;2.30;99.90
35804;DHT22;21924;51.934;7.414;2022-12-05T09:56:11;2.30;99.90
35804;DHT22;21924;51.934;7.414;2022-12-05T09:58:58;2.30;99.90
35804;DHT22;21924;51.934;7.414;2022-12-05T10:01:57;2.30;99.90
35804;DHT22;21924;51.934;7.414;2022-12-05T10:04:57;2.30;99.90
35804;DHT22;21924;51.934;7.414;2022-12-05T10:08:13;2.30;99.90
35804;DHT22;21924;51.934;7.414;2022-12-05T10:11:17;2.30;99.90
35804;DHT22;21924;51.934;7.414;2022-12-05T10:17:15;2.30;99.90
35804;DHT22;21924;51.934;7.414;2022-12-05T10:23:51;2.20;99.90
35804;DHT22;21924;51.934;7.414;2022-12-05T10:26:50;2.20;99.90
35804;DHT22;21924;51.934;7.414;2022-12-05T10:29:42;2.20;99.90
35804;DHT22;21924;51.934;7.414;2022-12-05T10:32:38;2.20;99.90
35804;DHT22;21924;51.934;7.414;2022-12-05T10:35:31;2.20;99.90
35804;DHT22;21924;51.934;7.414;2022-12-05T10:38:23;2.20;99.90
35804;DHT22;21924;51.934;7.414;2022-12-05T10:41:10;2.20;99.90
35804;DHT22;21924;51.934;7.414;2022-12-05T10:43:56;2.30;99.90
35804;DHT22;21924;51.934;7.414;2022-12-05T10:46:42;2.30;99.90
35804;DHT22;21924;51.934;7.414;2022-12-05T10:49:27;2.30;99.90
35804;DHT22;21924;51.934;7.414;2022-12-05T10:52:12;2.30;99.90
35804;DHT22;21924;51.934;7.414;2022-12-05T10:55:00;2.30;99.90
35804;DHT22;21924;51.934;7.414;2022-12-05T10:57:50;2.20;99.90
35804;DHT22;21924;51.934;7.414;2022-12-05T11:00:35;2.20;99.90
35804;DHT22;21924;51.934;7.414;2022-12-05T11:03:25;2.20;99.90
35804;DHT22;21924;51.934;7.414;2022-12-05T11:09:20;2.20;99.90
35804;DHT22;21924;51.934;7.414;2022-12-05T11:18:28;2.20;99.90
35804;DHT22;21924;51.934;7.414;2022-12-05T11:21:13;2.20;99.90
35804;DHT22;21924;51.934;7.414;2022-12-05T11:24:39;2.20;99.90
35804;DHT22;21924;51.934;7.414;2022-12-05T11:27:29;2.20;99.90
35804;DHT22;21924;51.934;7.414;2022-12-05T11:30:18;2.20;99.90
35804;DHT22;21924;51.934;7.414;2022-12-05T11:33:19;2.10;99.90
35804;DHT22;21924;51.934;7.414;2022-12-05T11:36:11;2.10;99.90
35804;DHT22;21924;51.934;7.414;2022-12-05T11:38:57;2.10;99.90
35804;DHT22;21924;51.934;7.414;2022-12-05T11:42:05;2.10;99.90
35804;DHT22;21924;51.934;7.414;2022-12-05T11:45:02;2.10;99.90
35804;DHT22;21924;51.934;7.414;2022-12-05T11:54:46;1.90;99.90
35804;DHT22;21924;51.934;7.414;2022-12-05T11:58:03;1.90;99.90
35804;DHT22;21924;51.934;7.414;2022-12-05T12:01:14;1.90;99.90
35804;DHT22;21924;51.934;7.414;2022-12-05T12:04:23;1.80;99.90
35804;DHT22;21924;51.934;7.414;2022-12-05T12:07:28;1.80;99.90
35804;DHT22;21924;51.934;7.414;2022-12-05T12:13:46;1.70;99.90
35804;DHT22;21924;51.934;7.414;2022-12-05T12:16:45;1.80;99.90
35804;DHT22;21924;51.934;7.414;2022-12-05T12:22:53;1.80;99.90
35804;DHT22;21924;51.934;7.414;2022-12-05T12:28:44;1.80;99.90
35804;DHT22;21924;51.934;7.414;2022-12-05T12:31:39;1.80;99.90
35804;DHT22;21924;51.934;7.414;2022-12-05T12:50:43;1.80;99.90
35804;DHT22;21924;51.934;7.414;2022-12-05T12:56:51;1.70;99.90
35804;DHT22;21924;51.934;7.414;2022-12-05T13:02:51;1.70;99.90
35804;DHT22;21924;51.934;7.414;2022-12-05T13:05:43;1.70;99.90
35804;DHT22;21924;51.934;7.414;2022-12-05T13:08:42;1.70;99.90
35804;DHT22;21924;51.934;7.414;2022-12-05T13:11:34;1.70;99.90
35804;DHT22;21924;51.934;7.414;2022-12-05T13:14:22;1.70;99.90
35804;DHT22;21924;51.934;7.414;2022-12-05T13:17:15;1.70;99.90
35804;DHT22;21924;51.934;7.414;2022-12-05T13:20:01;1.70;99.90
35804;DHT22;21924;51.934;7.414;2022-12-05T13:22:46;1.70;99.90
35804;DHT22;21924;51.934;7.414;2022-12-05T13:25:33;1.70;99.90
35804;DHT22;21924;51.934;7.414;2022-12-05T13:28:31;1.70;99.90
35804;DHT22;21924;51.934;7.414;2022-12-05T13:31:16;1.70;99.90
35804;DHT22;21924;51.934;7.414;2022-12-05T13:34:02;1.70;99.90
35804;DHT22;21924;51.934;7.414;2022-12-05T13:36:46;1.70;99.90
35804;DHT22;21924;51.934;7.414;2022-12-05T13:39:51;1.70;99.90
35804;DHT22;21924;51.934;7.414;2022-12-05T13:43:01;1.70;99.90
35804;DHT22;21924;51.934;7.414;2022-12-05T13:45:59;1.80;99.90
35804;DHT22;21924;51.934;7.414;2022-12-05T13:48:47;1.80;99.90
35804;DHT22;21924;51.934;7.414;2022-12-05T13:51:36;1.70;99.90
35804;DHT22;21924;51.934;7.414;2022-12-05T13:54:23;1.70;99.90
35804;DHT22;21924;51.934;7.414;2022-12-05T14:00:22;1.80;99.90
35804;DHT22;21924;51.934;7.414;2022-12-05T14:09:30;1.80;99.90
35804;DHT22;21924;51.934;7.414;2022-12-05T14:12:48;1.80;99.90
35804;DHT22;21924;51.934;7.414;2022-12-05T14:21:16;1.90;99.90
35804;DHT22;21924;51.934;7.414;2022-12-05T14:24:26;1.90;99.90
35804;DHT22;21924;51.934;7.414;2022-12-05T14:27:32;1.80;99.90
35804;DHT22;21924;51.934;7.414;2022-12-05T14:30:40;1.80;99.90
35804;DHT22;21924;51.934;7.414;2022-12-05T14:33:26;1.90;99.90
35804;DHT22;21924;51.934;7.414;2022-12-05T14:36:24;1.80;99.90
35804;DHT22;21924;51.934;7.414;2022-12-05T14:39:27;1.90;99.90
35804;DHT22;21924;51.934;7.414;2022-12-05T14:42:22;1.80;99.90
35804;DHT22;21924;51.934;7.414;2022-12-05T14:50:57;1.90;99.90
35804;DHT22;21924;51.934;7.414;2022-12-05T14:53:42;1.90;99.90
35804;DHT22;21924;51.934;7.414;2022-12-05T14:56:27;1.80;99.90
35804;DHT22;21924;51.934;7.414;2022-12-05T14:59:27;1.80;99.90
35804;DHT22;21924;51.934;7.414;2022-12-05T15:02:41;1.80;99.90
35804;DHT22;21924;51.934;7.414;2022-12-05T15:08:11;1.90;99.90
35804;DHT22;21924;51.934;7.414;2022-12-05T15:10:57;1.80;99.90
35804;DHT22;21924;51.934;7.414;2022-12-05T15:13:41;1.80;99.90
35804;DHT22;21924;51.934;7.414;2022-12-05T15:16:27;1.80;99.90
35804;DHT22;21924;51.934;7.414;2022-12-05T15:19:26;1.90;99.90
35804;DHT22;21924;51.934;7.414;2022-12-05T15:22:13;1.80;99.90
35804;DHT22;21924;51.934;7.414;2022-12-05T15:28:05;1.90;99.90
35804;DHT22;21924;51.934;7.414;2022-12-05T15:31:00;1.90;99.90
35804;DHT22;21924;51.934;7.414;2022-12-05T15:33:50;1.80;99.90
35804;DHT22;21924;51.934;7.414;2022-12-05T15:36:39;1.90;99.90
35804;DHT22;21924;51.934;7.414;2022-12-05T15:39:26;1.90;99.90
35804;DHT22;21924;51.934;7.414;2022-12-05T15:42:14;1.80;99.90
35804;DHT22;21924;51.934;7.414;2022-12-05T15:50:52;1.80;99.90
35804;DHT22;21924;51.934;7.414;2022-12-05T15:53:46;1.90;99.90
35804;DHT22;21924;51.934;7.414;2022-12-05T15:56:35;1.80;99.90
35804;DHT22;21924;51.934;7.414;2022-12-05T16:00:06;1.80;99.90
35804;DHT22;21924;51.934;7.414;2022-12-05T16:06:05;1.80;99.90
35804;DHT22;21924;51.934;7.414;2022-12-05T16:08:51;1.80;99.90
35804;DHT22;21924;51.934;7.414;2022-12-05T16:11:35;1.80;99.90
35804;DHT22;21924;51.934;7.414;2022-12-05T16:14:21;1.80;99.90
35804;DHT22;21924;51.934;7.414;2022-12-05T16:17:11;1.80;99.90
35804;DHT22;21924;51.934;7.414;2022-12-05T16:20:30;1.80;99.90
35804;DHT22;21924;51.934;7.414;2022-12-05T16:23:31;1.80;99.90
35804;DHT22;21924;51.934;7.414;2022-12-05T16:26:20;1.80;99.90
35804;DHT22;21924;51.934;7.414;2022-12-05T16:29:04;1.80;99.90
35804;DHT22;21924;51.934;7.414;2022-12-05T16:31:53;1.80;99.90
35804;DHT22;21924;51.934;7.414;2022-12-05T16:34:38;1.80;99.90
35804;DHT22;21924;51.934;7.414;2022-12-05T16:37:25;1.80;99.90
35804;DHT22;21924;51.934;7.414;2022-12-05T16:40:20;1.80;99.90
35804;DHT22;21924;51.934;7.414;2022-12-05T16:52:13;1.80;99.90
35804;DHT22;21924;51.934;7.414;2022-12-05T16:54:58;1.80;99.90
35804;DHT22;21924;51.934;7.414;2022-12-05T16:57:42;1.80;99.90
35804;DHT22;21924;51.934;7.414;2022-12-05T17:00:27;1.80;99.90
35804;DHT22;21924;51.934;7.414;2022-12-05T17:03:12;1.80;99.90
35804;DHT22;21924;51.934;7.414;2022-12-05T17:05:57;1.80;99.90
35804;DHT22;21924;51.934;7.414;2022-12-05T17:08:41;1.80;99.90
35804;DHT22;21924;51.934;7.414;2022-12-05T17:11:28;1.80;99.90
35804;DHT22;21924;51.934;7.414;2022-12-05T17:14:15;1.80;99.90
35804;DHT22;21924;51.934;7.414;2022-12-05T17:17:00;1.70;99.90
35804;DHT22;21924;51.934;7.414;2022-12-05T17:19:44;1.70;99.90
35804;DHT22;21924;51.934;7.414;2022-12-05T17:22:28;1.70;99.90
35804;DHT22;21924;51.934;7.414;2022-12-05T17:25:26;1.70;99.90
35804;DHT22;21924;51.934;7.414;2022-12-05T17:28:11;1.70;99.90
35804;DHT22;21924;51.934;7.414;2022-12-05T17:30:55;1.70;99.90
35804;DHT22;21924;51.934;7.414;2022-12-05T17:33:40;1.70;99.90
35804;DHT22;21924;51.934;7.414;2022-12-05T17:36:25;1.70;99.90
35804;DHT22;21924;51.934;7.414;2022-12-05T17:39:09;1.70;99.90
35804;DHT22;21924;51.934;7.414;2022-12-05T17:41:54;1.70;99.90
35804;DHT22;21924;51.934;7.414;2022-12-05T17:44:38;1.70;99.90
35804;DHT22;21924;51.934;7.414;2022-12-05T17:47:22;1.60;99.90
35804;DHT22;21924;51.934;7.414;2022-12-05T17:50:12;1.70;99.90
35804;DHT22;21924;51.934;7.414;2022-12-05T17:52:57;1.70;99.90
35804;DHT22;21924;51.934;7.414;2022-12-05T17:55:42;1.70;99.90
35804;DHT22;21924;51.934;7.414;2022-12-05T17:58:26;1.70;99.90
35804;DHT22;21924;51.934;7.414;2022-12-05T18:01:13;1.70;99.90
35804;DHT22;21924;51.934;7.414;2022-12-05T18:03:58;1.70;99.90
35804;DHT22;21924;51.934;7.414;2022-12-05T18:06:42;1.70;99.90
35804;DHT22;21924;51.934;7.414;2022-12-05T18:09:26;1.70;99.90
35804;DHT22;21924;51.934;7.414;2022-12-05T18:12:10;1.70;99.90
35804;DHT22;21924;51.934;7.414;2022-12-05T18:14:54;1.70;99.90
35804;DHT22;21924;51.934;7.414;2022-12-05T18:17:39;1.70;99.90
35804;DHT22;21924;51.934;7.414;2022-12-05T18:20:24;1.70;99.90
35804;DHT22;21924;51.934;7.414;2022-12-05T18:23:08;1.70;99.90
35804;DHT22;21924;51.934;7.414;2022-12-05T18:25:57;1.70;99.90
35804;DHT22;21924;51.934;7.414;2022-12-05T18:28:42;1.70;99.90
35804;DHT22;21924;51.934;7.414;2022-12-05T18:31:26;1.70;99.90
35804;DHT22;21924;51.934;7.414;2022-12-05T18:34:10;1.70;99.90
35804;DHT22;21924;51.934;7.414;2022-12-05T18:36:54;1.70;99.90
35804;DHT22;21924;51.934;7.414;2022-12-05T18:39:39;1.70;99.90
35804;DHT22;21924;51.934;7.414;2022-12-05T18:42:23;1.70;99.90
35804;DHT22;21924;51.934;7.414;2022-12-05T18:45:07;1.70;99.90
35804;DHT22;21924;51.934;7.414;2022-12-05T18:47:52;1.70;99.90
35804;DHT22;21924;51.934;7.414;2022-12-05T18:50:36;1.70;99.90
35804;DHT22;21924;51.934;7.414;2022-12-05T18:53:20;1.70;99.90
35804;DHT22;21924;51.934;7.414;2022-12-05T18:56:06;1.70;99.90
35804;DHT22;21924;51.934;7.414;2022-12-05T18:58:56;1.80;99.90
35804;DHT22;21924;51.934;7.414;2022-12-05T19:01:41;1.80;99.90
35804;DHT22;21924;51.934;7.414;2022-12-05T19:04:25;1.80;99.90
35804;DHT22;21924;51.934;7.414;2022-12-05T19:07:10;1.70;99.90
35804;DHT22;21924;51.934;7.414;2022-12-05T19:09:54;1.80;99.90
35804;DHT22;21924;51.934;7.414;2022-12-05T19:12:39;1.70;99.90
35804;DHT22;21924;51.934;7.414;2022-12-05T19:15:23;1.70;99.90
35804;DHT22;21924;51.934;7.414;2022-12-05T19:18:08;1.80;99.90
35804;DHT22;21924;51.934;7.414;2022-12-05T19:20:52;1.80;99.90
35804;DHT22;21924;51.934;7.414;2022-12-05T19:23:36;1.70;99.90
35804;DHT22;21924;51.934;7.414;2022-12-05T19:26:21;1.70;99.90
35804;DHT22;21924;51.934;7.414;2022-12-05T19:29:06;1.70;99.90
35804;DHT22;21924;51.934;7.414;2022-12-05T19:31:50;1.80;99.90
35804;DHT22;21924;51.934;7.414;2022-12-05T19:34:35;1.80;99.90
35804;DHT22;21924;51.934;7.414;2022-12-05T19:37:19;1.80;99.90
35804;DHT22;21924;51.934;7.414;2022-12-05T19:40:04;1.80;99.90
35804;DHT22;21924;51.934;7.414;2022-12-05T19:42:48;1.80;99.90
35804;DHT22;21924;51.934;7.414;2022-12-05T19:45:33;1.80;99.90
35804;DHT22;21924;51.934;7.414;2022-12-05T19:48:20;1.80;99.90
35804;DHT22;21924;51.934;7.414;2022-12-05T19:51:05;1.80;99.90
35804;DHT22;21924;51.934;7.414;2022-12-05T19:53:49;1.80;99.90
35804;DHT22;21924;51.934;7.414;2022-12-05T19:56:35;1.80;99.90
35804;DHT22;21924;51.934;7.414;2022-12-05T19:59:19;1.80;99.90
35804;DHT22;21924;51.934;7.414;2022-12-05T20:02:05;1.80;99.90
35804;DHT22;21924;51.934;7.414;2022-12-05T20:04:49;1.90;99.90
35804;DHT22;21924;51.934;7.414;2022-12-05T20:07:33;1.80;99.90
35804;DHT22;21924;51.934;7.414;2022-12-05T20:10:17;1.80;99.90
35804;DHT22;21924;51.934;7.414;2022-12-05T20:13:02;1.80;99.90